Time;durP1;ratioP1;P1;durP2;ratioP2;P2;SDS_P1;SDS_P2;PMS_P1;PMS_P2;Temp;Humidity;BMP_temperature;BMP_pressure;BME280_temperature;BME280_humidity;BME280_pressure;Samples;Min_cycle;Max_cycle;Signal;HPM_P1;HPM_P2
2022/06/04 00:01:42;;;;;;;1.45;1.35;;;20.00;99.90;;;;;;4936859;29;20083;-74
2022/06/04 00:04:12;;;;;;;2.50;1.70;;;20.00;99.90;;;;;;4937124;29;20020;-74
2022/06/04 00:06:37;;;;;;;3.28;1.80;;;19.90;99.90;;;;;;4936272;29;20123;-74
2022/06/04 00:09:06;;;;;;;2.60;1.55;;;19.90;99.90;;;;;;4936965;29;20115;-74
2022/06/04 00:17:00;;;;;;;1.67;1.58;;;19.80;99.90;;;;;;4937064;29;20038;-74
2022/06/04 00:19:26;;;;;;;2.92;1.55;;;19.80;99.90;;;;;;4936616;29;20032;-74
2022/06/04 00:21:52;;;;;;;1.63;1.52;;;19.80;99.90;;;;;;4937144;29;20078;-74
2022/06/04 00:24:17;;;;;;;1.92;1.67;;;19.80;99.90;;;;;;4935356;29;20062;-74
2022/06/04 00:26:43;;;;;;;1.60;1.25;;;19.70;99.90;;;;;;4935466;29;20028;-74
2022/06/04 00:29:09;;;;;;;1.95;1.80;;;19.70;99.90;;;;;;4936433;29;20078;-74
2022/06/04 00:31:36;;;;;;;3.20;1.73;;;19.70;99.90;;;;;;4936780;29;20035;-74
2022/06/04 00:34:03;;;;;;;1.70;1.55;;;19.70;99.90;;;;;;4936761;29;20062;-74
2022/06/04 00:36:30;;;;;;;3.67;1.75;;;19.70;99.90;;;;;;4935408;29;20122;-74
2022/06/04 00:38:56;;;;;;;3.15;1.70;;;19.60;99.90;;;;;;4936336;29;20050;-74
2022/06/04 00:41:48;;;;;;;1.90;1.80;;;19.60;99.90;;;;;;4936690;29;20023;-74
2022/06/04 00:44:13;;;;;;;1.60;1.48;;;19.60;99.90;;;;;;4936792;29;20413;-74
2022/06/04 00:46:42;;;;;;;1.55;1.40;;;19.50;99.90;;;;;;4936065;29;20028;-74
2022/06/04 00:49:08;;;;;;;2.63;1.95;;;19.50;99.90;;;;;;4935752;29;20031;-75
2022/06/04 00:51:34;;;;;;;1.92;1.65;;;19.50;99.90;;;;;;4936757;29;20036;-74
2022/06/04 00:54:01;;;;;;;2.38;1.90;;;19.50;99.90;;;;;;4935139;29;20056;-74
2022/06/04 00:56:55;;;;;;;1.70;1.60;;;19.50;99.90;;;;;;4935557;29;20042;-74
2022/06/04 00:59:45;;;;;;;4.30;2.03;;;19.50;99.90;;;;;;4936559;29;20031;-74
2022/06/04 01:02:39;;;;;;;1.92;1.80;;;19.40;99.90;;;;;;4936621;29;20585;-75
2022/06/04 01:05:08;;;;;;;1.90;1.80;;;19.40;99.90;;;;;;4936627;29;20108;-74
2022/06/04 01:07:55;;;;;;;2.10;2.00;;;19.40;99.90;;;;;;4936356;29;20027;-74
2022/06/04 01:10:45;;;;;;;2.35;2.15;;;19.40;99.90;;;;;;4935972;29;20068;-74
2022/06/04 01:13:16;;;;;;;3.20;2.03;;;19.40;99.90;;;;;;4936304;29;20142;-74
2022/06/04 01:15:57;;;;;;;2.03;1.77;;;19.40;99.90;;;;;;4936319;29;20039;-74
2022/06/04 01:18:44;;;;;;;2.00;1.90;;;19.40;99.90;;;;;;4936294;29;20027;-74
2022/06/04 01:21:29;;;;;;;6.35;2.00;;;19.40;99.90;;;;;;4935513;29;20458;-74
2022/06/04 01:23:55;;;;;;;2.75;1.70;;;19.30;99.90;;;;;;4936068;29;20054;-74
2022/06/04 01:26:59;;;;;;;3.00;1.90;;;19.30;99.90;;;;;;4935168;29;20454;-75
2022/06/04 01:29:38;;;;;;;5.00;2.00;;;19.30;99.90;;;;;;4934910;29;20031;-74
2022/06/04 01:32:40;;;;;;;2.38;1.92;;;19.20;99.90;;;;;;4937189;29;20454;-74
2022/06/04 01:35:13;;;;;;;2.45;2.03;;;19.20;99.90;;;;;;4909455;29;20114;-75
2022/06/04 01:37:56;;;;;;;2.85;2.40;;;19.10;99.90;;;;;;4939818;29;20076;-74
2022/06/04 01:43:23;;;;;;;2.13;1.60;;;19.10;99.90;;;;;;4939760;29;20398;-74
2022/06/04 01:45:51;;;;;;;1.70;1.60;;;19.10;99.90;;;;;;4939661;29;20036;-74
2022/06/04 01:48:19;;;;;;;2.13;1.65;;;19.10;99.90;;;;;;4939660;29;20071;-75
2022/06/04 01:50:49;;;;;;;1.85;1.75;;;19.10;99.90;;;;;;4939623;29;20036;-74
2022/06/04 01:53:17;;;;;;;1.73;1.63;;;19.00;99.90;;;;;;4938243;29;20028;-74
2022/06/04 01:55:51;;;;;;;2.05;1.80;;;19.00;99.90;;;;;;4939141;29;20383;-74
2022/06/04 01:58:33;;;;;;;1.70;1.60;;;19.00;99.90;;;;;;4939526;29;20106;-74
2022/06/04 02:01:08;;;;;;;2.25;1.67;;;19.00;99.90;;;;;;4939173;29;20027;-74
2022/06/04 02:03:47;;;;;;;1.48;1.38;;;19.10;99.90;;;;;;4939135;29;20388;-74
2022/06/04 02:06:22;;;;;;;;;;;19.00;99.90;;;;;;4939962;29;20031;-74
2022/06/04 02:08:53;;;;;;;5.28;1.17;;;19.00;99.90;;;;;;4937981;29;20001;-74
2022/06/04 02:11:22;;;;;;;1.80;1.30;;;19.00;99.90;;;;;;4938162;29;20173;-74
2022/06/04 02:13:51;;;;;;;1.52;1.33;;;19.10;99.90;;;;;;4937900;29;20119;-74
2022/06/04 02:16:28;;;;;;;2.85;1.35;;;19.00;99.90;;;;;;4937856;29;20035;-74
2022/06/04 02:18:57;;;;;;;1.30;1.20;;;19.00;99.90;;;;;;4939164;29;20027;-74
2022/06/04 02:21:24;;;;;;;3.33;1.50;;;19.00;99.90;;;;;;4938689;29;20388;-75
2022/06/04 02:23:50;;;;;;;2.42;1.30;;;19.00;99.90;;;;;;4937505;29;20080;-74
2022/06/04 02:26:18;;;;;;;1.35;1.27;;;19.00;99.90;;;;;;4939089;29;20103;-74
2022/06/04 02:28:44;;;;;;;2.30;1.83;;;19.00;99.90;;;;;;4938771;29;20043;-74
2022/06/04 02:31:23;;;;;;;1.40;1.30;;;19.00;99.90;;;;;;4938722;29;20036;-74
2022/06/04 02:33:52;;;;;;;;;;;19.00;99.90;;;;;;4937980;29;20142;-74
2022/06/04 02:36:35;;;;;;;4.32;1.20;;;19.00;99.90;;;;;;4938803;29;19966;-74
2022/06/04 02:39:39;;;;;;;1.63;1.50;;;19.00;99.90;;;;;;4937518;29;20487;-74
2022/06/04 02:42:13;;;;;;;1.60;1.50;;;18.90;99.90;;;;;;4937367;29;20031;-74
2022/06/04 02:44:55;;;;;;;2.05;1.40;;;19.00;99.90;;;;;;4937319;29;20062;-74
2022/06/04 02:47:26;;;;;;;1.27;1.17;;;19.00;99.90;;;;;;4937301;29;20032;-74
2022/06/04 02:50:01;;;;;;;1.58;1.25;;;19.00;99.90;;;;;;4938492;29;20027;-74
2022/06/04 02:52:30;;;;;;;1.52;1.42;;;19.00;99.90;;;;;;4938510;29;20039;-75
2022/06/04 02:55:02;;;;;;;2.25;1.40;;;18.90;99.90;;;;;;4938716;29;20169;-74
2022/06/04 02:57:31;;;;;;;1.90;1.33;;;18.90;99.90;;;;;;4938587;29;20035;-74
2022/06/04 02:59:58;;;;;;;2.03;1.30;;;18.90;99.90;;;;;;4938355;29;20058;-74
2022/06/04 03:02:27;;;;;;;1.95;1.23;;;18.90;99.90;;;;;;4936957;29;20032;-74
2022/06/04 03:04:55;;;;;;;;;;;18.90;99.90;;;;;;4938626;29;20056;-74
2022/06/04 03:07:24;;;;;;;2.55;1.00;;;18.80;99.90;;;;;;4936911;29;20401;-75
2022/06/04 03:10:01;;;;;;;3.20;1.50;;;18.80;99.90;;;;;;4936835;29;20035;-74
2022/06/04 03:12:27;;;;;;;2.15;1.23;;;18.90;99.90;;;;;;4937726;29;20152;-74
2022/06/04 03:14:53;;;;;;;4.18;2.10;;;18.90;99.90;;;;;;4936739;29;20024;-74
2022/06/04 03:17:19;;;;;;;2.03;1.23;;;19.00;99.90;;;;;;4937507;29;20027;-74
2022/06/04 03:19:44;;;;;;;2.35;1.52;;;18.90;99.90;;;;;;4937776;29;20023;-74
2022/06/04 03:22:10;;;;;;;2.25;1.38;;;18.90;99.90;;;;;;4937859;29;20111;-74
2022/06/04 03:24:35;;;;;;;1.48;1.33;;;18.90;99.90;;;;;;4937423;29;20048;-75
2022/06/04 03:27:01;;;;;;;2.03;1.73;;;18.90;99.90;;;;;;4936515;29;20032;-74
2022/06/04 03:29:27;;;;;;;1.73;1.52;;;18.90;99.90;;;;;;4937812;29;20028;-74
2022/06/04 03:31:52;;;;;;;3.63;1.50;;;18.90;99.90;;;;;;4937715;29;20036;-74
2022/06/04 03:34:18;;;;;;;5.68;1.60;;;18.90;99.90;;;;;;4936417;29;20023;-74
2022/06/04 03:36:44;;;;;;;1.48;1.38;;;18.90;99.90;;;;;;4937621;29;20047;-74
2022/06/04 03:39:09;;;;;;;2.22;1.45;;;18.90;99.90;;;;;;4937594;29;20043;-74
2022/06/04 03:41:36;;;;;;;2.25;1.48;;;18.90;99.90;;;;;;4937490;29;20028;-75
2022/06/04 03:44:03;;;;;;;2.00;1.40;;;18.90;99.90;;;;;;4937477;29;20091;-75
2022/06/04 03:46:28;;;;;;;1.60;1.50;;;18.90;99.90;;;;;;4937487;29;20031;-74
2022/06/04 03:48:56;;;;;;;2.50;1.20;;;18.80;99.90;;;;;;4936152;29;20564;-74
2022/06/04 03:51:23;;;;;;;2.05;1.23;;;18.90;99.90;;;;;;4937391;29;20035;-74
2022/06/04 03:53:48;;;;;;;2.00;1.67;;;18.90;99.90;;;;;;4935673;29;20058;-74
2022/06/04 03:56:14;;;;;;;2.95;1.40;;;18.90;99.90;;;;;;4936916;29;20098;-75
2022/06/04 03:58:40;;;;;;;1.48;1.10;;;18.90;99.90;;;;;;4936246;29;20063;-75
2022/06/04 04:01:25;;;;;;;1.45;1.10;;;19.00;99.90;;;;;;4935950;29;20028;-74
2022/06/04 04:03:51;;;;;;;1.85;0.90;;;19.00;99.90;;;;;;4937347;29;20074;-74
2022/06/04 04:06:24;;;;;;;1.40;1.30;;;19.10;99.90;;;;;;4936166;29;20036;-74
2022/06/04 04:08:51;;;;;;;1.38;1.13;;;19.10;99.90;;;;;;4937072;29;20038;-74
2022/06/04 04:11:19;;;;;;;2.78;1.25;;;19.20;99.90;;;;;;4935780;29;20036;-74
2022/06/04 04:13:46;;;;;;;2.67;1.10;;;19.20;99.90;;;;;;4937015;29;20032;-74
2022/06/04 04:16:13;;;;;;;1.40;1.30;;;19.30;99.90;;;;;;4936652;29;20437;-74
2022/06/04 04:18:39;;;;;;;4.80;2.80;;;19.30;99.90;;;;;;4936627;29;20399;-74
2022/06/04 04:21:08;;;;;;;4.15;1.45;;;19.40;99.90;;;;;;4935685;29;20042;-74
2022/06/04 04:23:34;;;;;;;1.30;1.00;;;19.40;99.90;;;;;;4937057;29;20531;-75
2022/06/04 04:26:00;;;;;;;3.80;1.20;;;19.50;99.90;;;;;;4936853;29;20114;-75
2022/06/04 04:28:26;;;;;;;2.75;1.25;;;19.60;99.90;;;;;;4935491;29;20028;-74
2022/06/04 04:30:52;;;;;;;2.33;1.00;;;19.60;99.90;;;;;;4935423;29;20035;-74
2022/06/04 04:33:18;;;;;;;1.10;0.85;;;19.60;99.90;;;;;;4936711;29;20032;-75
2022/06/04 04:35:44;;;;;;;2.45;1.27;;;19.70;99.90;;;;;;4935303;29;20028;-75
2022/06/04 04:38:11;;;;;;;1.98;0.82;;;19.70;99.90;;;;;;4936655;29;20024;-75
2022/06/04 04:40:37;;;;;;;0.98;0.98;;;19.80;99.90;;;;;;4935474;29;20035;-73
2022/06/04 04:43:03;;;;;;;3.42;1.10;;;19.90;99.90;;;;;;4936554;29;20031;-73
2022/06/04 04:45:29;;;;;;;4.50;1.10;;;20.00;99.90;;;;;;4935316;29;20035;-73
2022/06/04 04:47:56;;;;;;;2.55;1.05;;;20.20;99.90;;;;;;4936602;29;20070;-72
2022/06/04 04:50:37;;;;;;;1.23;0.90;;;20.30;99.90;;;;;;4935165;29;20035;-73
2022/06/04 04:53:06;;;;;;;2.30;0.90;;;20.40;99.90;;;;;;4935443;29;20392;-74
2022/06/04 04:55:32;;;;;;;;;;;20.40;99.90;;;;;;4935591;29;20051;-74
2022/06/04 04:57:59;;;;;;;3.42;1.65;;;20.50;99.90;;;;;;4936937;29;19907;-73
2022/06/04 05:00:25;;;;;;;3.42;1.00;;;20.50;99.90;;;;;;4936592;29;20122;-73
2022/06/04 05:02:51;;;;;;;4.32;1.33;;;20.50;99.90;;;;;;4935544;29;20127;-75
2022/06/04 05:05:17;;;;;;;1.10;1.00;;;20.60;99.90;;;;;;4936160;29;20028;-72
2022/06/04 05:07:44;;;;;;;1.85;0.93;;;20.60;99.90;;;;;;4938983;29;20028;-73
2022/06/04 05:10:12;;;;;;;2.65;1.08;;;20.60;99.90;;;;;;4940183;29;20102;-73
2022/06/04 05:12:38;;;;;;;0.93;0.88;;;20.60;99.90;;;;;;4940152;29;20036;-72
2022/06/04 05:15:05;;;;;;;3.97;1.02;;;20.60;99.90;;;;;;4939928;29;20095;-73
2022/06/04 05:17:31;;;;;;;1.20;0.75;;;20.60;99.90;;;;;;4940568;29;20409;-72
2022/06/04 05:19:56;;;;;;;5.03;0.98;;;20.70;99.90;;;;;;4939902;29;20046;-70
2022/06/04 05:22:22;;;;;;;1.13;0.90;;;20.80;99.90;;;;;;4940055;29;20034;-72
2022/06/04 05:24:48;;;;;;;3.15;1.00;;;20.80;99.90;;;;;;4938671;29;20104;-75
2022/06/04 05:27:13;;;;;;;1.52;1.05;;;20.80;99.90;;;;;;4939994;29;20444;-72
2022/06/04 05:29:39;;;;;;;1.70;1.10;;;20.90;99.90;;;;;;4939580;29;20035;-71
2022/06/04 05:32:07;;;;;;;2.03;1.75;;;20.90;99.90;;;;;;4938526;29;20043;-72
2022/06/04 05:34:33;;;;;;;1.15;0.90;;;21.10;99.90;;;;;;4939734;29;20055;-72
2022/06/04 05:37:01;;;;;;;1.80;0.82;;;21.20;99.90;;;;;;4939636;29;20042;-71
2022/06/04 05:39:29;;;;;;;3.42;1.15;;;21.20;99.90;;;;;;4938438;29;20122;-71
2022/06/04 05:41:55;;;;;;;2.58;1.27;;;21.20;99.90;;;;;;4939853;29;20026;-69
2022/06/04 05:44:20;;;;;;;1.65;0.98;;;21.20;99.90;;;;;;4938382;29;20028;-70
2022/06/04 05:46:46;;;;;;;1.00;0.70;;;21.20;99.90;;;;;;4939643;29;20028;-69
2022/06/04 05:49:13;;;;;;;1.88;0.70;;;21.20;99.90;;;;;;4939480;29;20043;-69
2022/06/04 05:51:41;;;;;;;2.17;0.82;;;21.30;99.90;;;;;;4939559;29;20460;-70
2022/06/04 05:54:07;;;;;;;1.13;0.80;;;21.30;99.90;;;;;;4938011;29;20028;-69
2022/06/04 05:56:36;;;;;;;1.58;1.00;;;21.30;99.90;;;;;;4939639;29;20274;-69
2022/06/04 05:59:05;;;;;;;2.97;1.42;;;21.30;99.90;;;;;;4939381;29;20041;-70
2022/06/04 06:01:32;;;;;;;3.30;0.80;;;21.40;99.90;;;;;;4939039;29;20046;-70
2022/06/04 06:03:59;;;;;;;2.33;0.95;;;21.50;99.90;;;;;;4937959;29;20539;-67
2022/06/04 06:06:28;;;;;;;1.73;0.90;;;21.60;99.90;;;;;;4937576;29;20051;-67
2022/06/04 06:08:55;;;;;;;;;;;21.80;99.90;;;;;;4939519;29;20039;-68
2022/06/04 06:11:22;;;;;;;2.45;0.65;;;22.00;99.90;;;;;;4939196;29;19910;-70
2022/06/04 06:13:49;;;;;;;2.20;0.77;;;22.30;99.90;;;;;;4939187;29;20051;-68
2022/06/04 06:16:22;;;;;;;1.67;1.25;;;22.70;99.90;;;;;;4939003;29;20063;-69
2022/06/04 06:18:48;;;;;;;1.85;0.90;;;23.00;99.90;;;;;;4938486;29;20429;-67
2022/06/04 06:21:17;;;;;;;0.90;0.90;;;23.30;99.90;;;;;;4938725;29;20435;-72
2022/06/04 06:23:43;;;;;;;1.67;0.80;;;23.50;99.90;;;;;;4937580;29;20470;-62
2022/06/04 06:26:12;;;;;;;1.50;0.70;;;23.90;99.90;;;;;;4939196;29;20384;-63
2022/06/04 06:28:39;;;;;;;1.48;0.90;;;24.00;99.90;;;;;;4938874;29;20032;-62
2022/06/04 06:31:06;;;;;;;1.55;0.77;;;24.10;99.90;;;;;;4937694;29;20090;-62
2022/06/04 06:33:32;;;;;;;3.67;0.90;;;24.40;99.90;;;;;;4938613;29;20031;-62
2022/06/04 06:36:00;;;;;;;3.08;0.77;;;24.60;99.90;;;;;;4938965;29;20032;-62
2022/06/04 06:38:26;;;;;;;6.47;1.17;;;24.90;99.90;;;;;;4938644;29;20023;-69
2022/06/04 06:40:54;;;;;;;3.25;1.00;;;24.90;99.90;;;;;;4936813;29;20092;-70
2022/06/04 06:43:20;;;;;;;2.00;0.60;;;24.90;99.90;;;;;;4938310;29;20119;-69
2022/06/04 06:45:46;;;;;;;1.23;0.70;;;25.10;99.90;;;;;;4938396;29;20063;-70
2022/06/04 06:48:12;;;;;;;2.72;0.85;;;25.30;99.90;;;;;;4938269;29;20055;-70
2022/06/04 06:50:38;;;;;;;2.28;1.10;;;25.40;99.90;;;;;;4938064;29;20067;-69
2022/06/04 06:53:04;;;;;;;1.42;0.70;;;25.30;99.90;;;;;;4938096;29;20031;-70
2022/06/04 06:55:30;;;;;;;3.53;0.63;;;25.20;99.90;;;;;;4938100;29;20452;-69
2022/06/04 06:57:56;;;;;;;1.73;0.80;;;25.30;99.90;;;;;;4938311;29;20038;-69
2022/06/04 07:00:22;;;;;;;1.73;0.80;;;25.30;99.90;;;;;;4937078;29;20507;-69
2022/06/04 07:02:48;;;;;;;1.35;0.60;;;25.40;99.90;;;;;;4938081;29;20452;-69
2022/06/04 07:05:13;;;;;;;1.77;0.68;;;25.40;99.90;;;;;;4938358;29;20387;-69
2022/06/04 07:07:40;;;;;;;1.98;1.05;;;25.70;99.90;;;;;;4937752;29;20038;-69
2022/06/04 07:10:06;;;;;;;2.63;0.82;;;25.90;99.90;;;;;;4937975;29;20058;-69
2022/06/04 07:12:32;;;;;;;1.67;0.98;;;26.10;98.80;;;;;;4938097;29;20032;-72
2022/06/04 07:14:58;;;;;;;3.22;0.88;;;26.20;98.60;;;;;;4937457;29;20055;-70
2022/06/04 07:17:24;;;;;;;2.78;1.02;;;26.30;98.50;;;;;;4936722;29;20118;-70
2022/06/04 07:19:50;;;;;;;1.02;0.70;;;26.30;98.00;;;;;;4937940;29;20391;-69
2022/06/04 07:22:16;;;;;;;2.50;1.00;;;26.10;98.50;;;;;;4937808;29;20380;-70
2022/06/04 07:24:42;;;;;;;2.00;0.90;;;26.20;98.90;;;;;;4937947;29;20138;-70
2022/06/04 07:27:09;;;;;;;1.48;0.80;;;26.40;98.20;;;;;;4937879;29;20493;-70
2022/06/04 07:29:35;;;;;;;2.10;1.08;;;26.90;97.40;;;;;;4936744;29;20032;-70
2022/06/04 07:32:02;;;;;;;1.13;0.90;;;26.90;96.10;;;;;;4937799;29;20102;-72
2022/06/04 07:34:28;;;;;;;1.83;1.00;;;26.90;96.80;;;;;;4920608;29;20035;-70
2022/06/04 07:36:54;;;;;;;1.10;0.80;;;26.90;95.30;;;;;;4937501;29;20032;-69
2022/06/04 07:39:20;;;;;;;2.30;1.15;;;27.00;94.80;;;;;;4920529;29;20039;-70
2022/06/04 07:41:52;;;;;;;1.23;1.10;;;27.00;94.70;;;;;;4937459;29;20043;-69
2022/06/04 07:44:18;;;;;;;1.08;0.98;;;27.10;94.70;;;;;;4920499;29;20059;-69
2022/06/04 07:46:46;;;;;;;1.45;1.05;;;27.30;92.80;;;;;;4937475;29;20035;-69
2022/06/04 07:49:13;;;;;;;1.30;1.00;;;27.50;93.00;;;;;;4920184;29;20486;-68
2022/06/04 07:51:40;;;;;;;1.50;1.13;;;27.40;91.60;;;;;;4937328;29;20032;-68
2022/06/04 07:54:10;;;;;;;2.53;1.10;;;27.30;91.70;;;;;;4920454;29;20035;-73
2022/06/04 07:56:36;;;;;;;1.67;1.40;;;27.50;92.30;;;;;;4937208;29;20028;-73
2022/06/04 07:59:04;;;;;;;2.05;1.02;;;27.50;91.80;;;;;;4937150;29;20039;-56
2022/06/04 08:01:30;;;;;;;2.08;0.98;;;27.60;93.30;;;;;;4937237;29;20039;-56
2022/06/04 08:03:56;;;;;;;4.00;1.50;;;27.90;91.00;;;;;;4936798;29;20065;-56
2022/06/04 08:06:22;;;;;;;2.95;1.25;;;27.70;91.10;;;;;;4937380;29;20031;-56
2022/06/04 08:08:51;;;;;;;3.17;1.30;;;27.60;91.40;;;;;;4937046;29;20110;-56
2022/06/04 08:11:36;;;;;;;2.28;1.20;;;27.20;92.90;;;;;;4936932;29;20467;-73
2022/06/04 08:14:10;;;;;;;3.00;1.10;;;27.10;92.70;;;;;;4936958;29;20103;-73
2022/06/04 08:16:38;;;;;;;2.90;1.15;;;26.90;92.90;;;;;;4936860;29;20460;-73
2022/06/04 08:19:05;;;;;;;3.17;1.20;;;26.30;93.60;;;;;;4936859;29;20028;-70
2022/06/04 08:21:33;;;;;;;4.72;1.33;;;26.30;94.60;;;;;;4936930;29;20036;-72
2022/06/04 08:23:59;;;;;;;1.77;1.13;;;26.50;94.60;;;;;;4936633;29;20360;-72
2022/06/04 08:26:25;;;;;;;3.30;1.55;;;26.20;94.50;;;;;;4936767;29;20042;-72
2022/06/04 08:28:52;;;;;;;4.47;1.40;;;26.20;94.80;;;;;;4936507;29;20027;-75
2022/06/04 08:31:18;;;;;;;1.42;0.90;;;26.70;94.80;;;;;;4919604;29;20122;-72
2022/06/04 08:33:43;;;;;;;2.50;1.30;;;27.50;92.80;;;;;;4936655;29;20106;-72
2022/06/04 08:36:12;;;;;;;1.50;0.98;;;28.10;91.30;;;;;;4936844;29;20236;-72
2022/06/04 08:38:38;;;;;;;1.33;1.23;;;28.70;88.00;;;;;;4936679;29;20483;-73
2022/06/04 08:41:07;;;;;;;1.27;0.68;;;29.30;84.50;;;;;;4936273;29;20035;-73
2022/06/04 08:43:41;;;;;;;2.15;1.13;;;29.00;78.40;;;;;;4936543;29;20050;-72
2022/06/04 08:46:19;;;;;;;3.03;1.10;;;29.40;79.90;;;;;;4935241;29;20482;-72
2022/06/04 08:48:47;;;;;;;1.10;1.00;;;30.00;76.40;;;;;;4919410;29;20084;-73
2022/06/04 08:51:26;;;;;;;1.90;1.00;;;30.80;70.40;;;;;;4936197;29;20387;-72
2022/06/04 08:53:56;;;;;;;1.58;0.70;;;30.90;64.60;;;;;;4936502;29;20036;-73
2022/06/04 08:59:33;;;;;;;2.13;0.90;;;31.40;61.90;;;;;;4936112;29;20123;-72
2022/06/04 09:02:04;;;;;;;1.67;0.63;;;31.60;61.20;;;;;;4936190;29;20086;-75
2022/06/04 09:04:29;;;;;;;2.15;0.77;;;32.20;59.10;;;;;;4919288;29;20036;-73
2022/06/04 09:07:23;;;;;;;1.42;0.60;;;32.20;57.00;;;;;;4936350;29;20028;-73
2022/06/04 09:10:04;;;;;;;1.15;0.65;;;32.50;55.90;;;;;;4926627;29;20052;-75
2022/06/04 09:12:55;;;;;;;1.38;1.00;;;32.30;55.30;;;;;;4919329;29;20087;-73
2022/06/04 09:15:20;;;;;;;5.32;0.85;;;32.20;55.70;;;;;;4936678;29;20468;-73
2022/06/04 09:17:51;;;;;;;1.38;0.60;;;32.60;53.70;;;;;;4935993;29;20078;-73
2022/06/04 09:20:16;;;;;;;1.42;0.80;;;32.10;53.60;;;;;;4936268;29;20115;-73
2022/06/04 09:22:45;;;;;;;3.03;0.60;;;32.00;55.50;;;;;;4936181;29;20107;-73
2022/06/04 09:25:16;;;;;;;2.33;0.60;;;31.90;53.70;;;;;;4936120;29;20056;-73
2022/06/04 09:27:54;;;;;;;0.75;0.75;;;32.00;55.30;;;;;;4936392;29;20051;-73
2022/06/04 09:30:37;;;;;;;2.37;0.80;;;32.70;54.60;;;;;;4919281;29;20404;-73
2022/06/04 09:33:18;;;;;;;1.83;0.70;;;32.80;52.50;;;;;;4919075;29;20060;-73
2022/06/04 09:35:44;;;;;;;3.10;0.43;;;33.10;52.50;;;;;;4936395;29;20077;-73
2022/06/04 09:38:31;;;;;;;1.02;0.50;;;33.20;51.30;;;;;;4935939;29;20103;-74
2022/06/04 09:41:27;;;;;;;3.58;0.60;;;33.40;49.80;;;;;;4936281;29;20032;-73
2022/06/04 09:44:05;;;;;;;2.03;0.40;;;33.40;50.50;;;;;;4918865;29;20027;-73
2022/06/04 09:46:32;;;;;;;2.33;0.60;;;33.80;49.70;;;;;;4935957;29;20086;-73
2022/06/04 09:48:59;;;;;;;1.10;0.50;;;34.20;47.50;;;;;;4935596;29;20035;-74
2022/06/04 09:51:27;;;;;;;1.20;0.60;;;34.20;47.70;;;;;;4935889;29;20028;-73
2022/06/04 09:54:05;;;;;;;1.65;0.57;;;34.00;47.50;;;;;;4938745;29;20523;-73
2022/06/04 09:56:41;;;;;;;2.20;0.75;;;34.10;48.10;;;;;;4922210;29;20027;-73
2022/06/04 09:59:29;;;;;;;1.02;0.65;;;33.60;45.90;;;;;;4939412;29;20027;-75
2022/06/04 10:01:56;;;;;;;1.95;0.45;;;33.30;46.30;;;;;;4922415;29;20031;-73
2022/06/04 10:04:23;;;;;;;2.65;0.63;;;33.30;47.20;;;;;;4922691;29;20558;-73
2022/06/04 10:06:49;;;;;;;1.85;0.40;;;33.70;47.90;;;;;;4922243;29;20028;-73
2022/06/04 10:12:14;;;;;;;2.42;0.75;;;33.50;44.90;;;;;;4938959;29;20050;-73
2022/06/04 10:14:42;;;;;;;1.30;0.82;;;32.50;47.10;;;;;;4938897;29;20055;-73
2022/06/04 10:17:18;;;;;;;4.00;1.00;;;32.50;47.80;;;;;;4922013;29;20042;-73
2022/06/04 10:19:54;;;;;;;1.13;0.60;;;33.00;48.00;;;;;;4938856;29;20059;-73
2022/06/04 10:22:21;;;;;;;0.70;0.40;;;33.60;47.50;;;;;;4921879;29;20115;-73
2022/06/04 10:24:57;;;;;;;0.73;0.57;;;33.80;47.40;;;;;;4939211;29;20047;-73
2022/06/04 10:27:48;;;;;;;1.70;0.70;;;33.90;46.50;;;;;;4921841;29;20070;-73
2022/06/04 10:30:48;;;;;;;2.53;0.50;;;34.10;46.80;;;;;;4905957;29;20389;-73
2022/06/04 10:33:22;;;;;;;3.00;1.20;;;34.20;46.50;;;;;;4916112;29;20511;-73
2022/06/04 10:35:57;;;;;;;1.42;0.60;;;34.20;46.70;;;;;;4938965;29;20030;-73
2022/06/04 10:39:02;;;;;;;2.40;0.80;;;34.40;46.50;;;;;;4921601;29;20445;-73
2022/06/04 10:41:53;;;;;;;1.70;0.50;;;34.30;46.60;;;;;;4921246;29;20027;-73
2022/06/04 10:44:48;;;;;;;0.95;0.50;;;33.90;47.70;;;;;;4938330;29;20490;-73
2022/06/04 10:47:38;;;;;;;1.08;0.70;;;34.40;47.10;;;;;;4921336;29;20024;-73
2022/06/04 10:50:12;;;;;;;3.75;0.70;;;33.40;47.80;;;;;;4938132;29;20036;-73
2022/06/04 10:52:41;;;;;;;2.42;0.75;;;33.00;48.90;;;;;;4938334;29;20434;-73
2022/06/04 10:55:41;;;;;;;1.63;0.55;;;33.60;48.40;;;;;;4938516;29;20024;-73
2022/06/04 10:58:09;;;;;;;0.98;0.70;;;34.40;47.40;;;;;;4938214;29;20035;-73
2022/06/04 11:00:35;;;;;;;3.50;0.50;;;34.00;47.50;;;;;;4921132;29;20028;-73
2022/06/04 11:03:10;;;;;;;2.90;0.70;;;34.00;47.40;;;;;;4921164;29;20028;-73
2022/06/04 11:05:41;;;;;;;1.08;0.70;;;34.10;46.70;;;;;;4938520;29;20183;-73
2022/06/04 11:08:09;;;;;;;2.47;0.80;;;34.10;47.00;;;;;;4938206;29;20032;-73
2022/06/04 11:10:43;;;;;;;1.42;0.57;;;34.40;47.10;;;;;;4937999;29;20032;-73
2022/06/04 11:13:15;;;;;;;1.65;0.70;;;34.70;46.30;;;;;;4938209;29;20039;-73
2022/06/04 11:16:02;;;;;;;1.58;0.47;;;34.80;45.70;;;;;;4938013;29;20028;-73
2022/06/04 11:18:37;;;;;;;2.03;0.52;;;35.00;45.60;;;;;;4938064;29;20028;-72
2022/06/04 11:21:16;;;;;;;2.55;1.02;;;35.50;44.20;;;;;;4937796;29;20107;-73
2022/06/04 11:23:45;;;;;;;;;;;35.10;44.40;;;;;;4921190;29;20032;-73
2022/06/04 11:26:29;;;;;;;2.55;0.68;;;34.60;45.40;;;;;;4937773;29;19907;-73
2022/06/04 11:28:55;;;;;;;1.13;0.70;;;34.60;44.90;;;;;;4937336;29;20034;-72
2022/06/04 11:31:23;;;;;;;1.65;0.77;;;34.90;45.90;;;;;;4938013;29;20070;-72
2022/06/04 11:34:12;;;;;;;1.45;0.80;;;35.10;44.10;;;;;;4937562;29;20428;-73
2022/06/04 11:36:43;;;;;;;;;;;35.90;44.50;;;;;;4938319;29;20439;-72
2022/06/04 11:39:21;;;;;;;3.63;0.80;;;34.80;44.10;;;;;;4937761;29;19913;-72
2022/06/04 11:42:22;;;;;;;1.87;0.73;;;33.90;45.30;;;;;;4937537;29;20054;-72
2022/06/04 11:45:10;;;;;;;1.83;0.73;;;34.10;45.40;;;;;;4932694;29;20398;-72
2022/06/04 11:48:02;;;;;;;3.75;0.63;;;34.70;45.40;;;;;;4920381;29;20036;-72
2022/06/04 11:50:58;;;;;;;1.05;0.50;;;35.00;44.70;;;;;;4936312;29;20044;-72
2022/06/04 11:53:45;;;;;;;2.10;0.90;;;35.10;44.40;;;;;;4937282;29;20036;-73
2022/06/04 11:56:10;;;;;;;3.33;0.88;;;34.50;45.30;;;;;;4920060;29;20046;-73
2022/06/04 11:58:42;;;;;;;1.50;0.77;;;34.70;45.50;;;;;;4937317;29;20027;-73
2022/06/04 12:01:20;;;;;;;1.85;0.90;;;34.70;44.80;;;;;;4937394;29;20531;-72
2022/06/04 12:04:19;;;;;;;4.13;1.40;;;34.80;44.70;;;;;;4937038;29;20051;-73
2022/06/04 12:06:52;;;;;;;2.78;0.60;;;35.30;45.00;;;;;;4937314;29;20035;-73
2022/06/04 12:09:44;;;;;;;3.05;1.20;;;36.00;44.60;;;;;;4919908;29;20548;-73
2022/06/04 12:12:29;;;;;;;3.20;1.10;;;36.80;43.40;;;;;;4937046;29;20047;-75
2022/06/04 12:15:06;;;;;;;2.85;0.90;;;36.90;42.20;;;;;;4919478;29;20034;-73
2022/06/04 12:17:43;;;;;;;2.40;0.90;;;36.70;41.80;;;;;;4937016;29;20539;-73
2022/06/04 12:26:22;;;;;;;2.95;0.90;;;34.90;44.40;;;;;;4936647;29;20083;-73
2022/06/04 12:28:48;;;;;;;1.60;0.50;;;35.40;44.30;;;;;;4919626;29;20070;-73
2022/06/04 12:31:35;;;;;;;1.13;1.02;;;36.00;42.90;;;;;;4919615;29;20059;-73
2022/06/04 12:34:20;;;;;;;4.45;0.98;;;36.70;42.00;;;;;;4937007;29;20035;-73
2022/06/04 12:36:52;;;;;;;3.53;0.75;;;37.30;42.40;;;;;;4920181;29;20042;-73
2022/06/04 12:39:31;;;;;;;2.33;0.75;;;37.70;42.70;;;;;;4936798;29;20525;-73
2022/06/04 12:41:59;;;;;;;2.67;0.82;;;38.00;41.50;;;;;;4936751;29;20062;-73
2022/06/04 12:44:27;;;;;;;2.95;0.82;;;38.50;40.00;;;;;;4936562;29;20020;-73
2022/06/04 12:46:54;;;;;;;2.70;0.87;;;37.90;39.40;;;;;;4936213;29;20384;-73
2022/06/04 12:49:35;;;;;;;4.05;0.80;;;37.40;40.30;;;;;;4936703;29;20048;-73
2022/06/04 12:52:23;;;;;;;1.50;1.00;;;36.80;41.10;;;;;;4936493;29;20428;-73
2022/06/04 12:55:01;;;;;;;2.25;0.60;;;36.70;40.80;;;;;;4936763;29;20031;-73
2022/06/04 12:57:41;;;;;;;1.30;0.55;;;36.80;39.60;;;;;;4936735;29;20028;-73
2022/06/04 13:00:19;;;;;;;2.60;0.70;;;36.40;40.00;;;;;;4919412;29;20039;-73
2022/06/04 13:03:26;;;;;;;2.38;0.93;;;35.80;39.50;;;;;;4936236;29;20107;-73
2022/06/04 13:06:20;;;;;;;1.48;0.65;;;35.10;40.50;;;;;;4923585;29;20032;-72
2022/06/04 13:09:03;;;;;;;4.00;1.02;;;35.40;41.20;;;;;;4918838;29;20079;-73
2022/06/04 13:11:50;;;;;;;1.77;0.80;;;36.50;40.80;;;;;;4919507;29;20035;-73
2022/06/04 13:14:29;;;;;;;4.68;0.90;;;36.70;41.90;;;;;;4936432;29;20107;-72
2022/06/04 13:17:09;;;;;;;4.30;1.25;;;35.10;44.90;;;;;;4936369;29;20023;-72
2022/06/04 13:19:41;;;;;;;3.10;1.33;;;34.80;47.60;;;;;;4936437;29;20115;-73
2022/06/04 13:22:20;;;;;;;2.67;1.00;;;35.40;47.30;;;;;;4936007;29;20035;-73
2022/06/04 13:24:47;;;;;;;2.63;0.82;;;35.50;46.10;;;;;;4936358;29;20043;-73
2022/06/04 13:27:19;;;;;;;4.90;0.95;;;35.80;46.50;;;;;;4919441;29;20046;-73
2022/06/04 13:29:54;;;;;;;0.98;0.80;;;36.10;47.40;;;;;;4940244;29;20388;-73
2022/06/04 13:32:22;;;;;;;0.73;0.73;;;36.90;45.60;;;;;;4923235;29;20032;-73
2022/06/04 13:34:49;;;;;;;1.98;1.15;;;37.30;45.30;;;;;;4922919;29;20031;-73